createdAt,value
2022-11-14T00:00:51.840Z,2.50
2022-11-14T00:01:53.676Z,2.50
2022-11-14T00:02:54.007Z,2.50
2022-11-14T00:03:53.671Z,2.50
2022-11-14T00:04:53.998Z,2.50
2022-11-14T00:05:54.935Z,2.50
2022-11-14T00:06:56.523Z,2.50
2022-11-14T00:07:56.149Z,2.50
2022-11-14T00:08:57.193Z,2.50
2022-11-14T00:09:57.334Z,2.50
2022-11-14T00:10:56.571Z,2.50
2022-11-14T00:11:56.897Z,2.49
2022-11-14T00:12:58.172Z,2.49
2022-11-14T00:13:58.640Z,2.49
2022-11-14T00:14:57.867Z,2.49
2022-11-14T00:15:57.909Z,2.49
2022-11-14T00:16:58.482Z,2.49
2022-11-14T00:17:59.764Z,2.49
2022-11-14T00:18:08.460Z,2.50
2022-11-14T00:19:08.517Z,2.50
2022-11-14T00:20:10.109Z,2.49
2022-11-14T00:21:10.486Z,2.49
2022-11-14T00:22:10.837Z,2.49
2022-11-14T00:23:11.822Z,2.49
2022-11-14T00:24:11.072Z,2.49
2022-11-14T00:25:11.372Z,2.49
2022-11-14T00:26:11.733Z,2.49
2022-11-14T00:27:12.370Z,2.49
2022-11-14T00:28:13.559Z,2.49
2022-11-14T00:29:13.037Z,2.48
2022-11-14T00:30:14.836Z,2.48
2022-11-14T00:31:14.275Z,2.47
2022-11-14T00:32:15.840Z,2.47
2022-11-14T00:33:20.243Z,2.47
2022-11-14T00:34:15.076Z,2.47
2022-11-14T00:35:15.246Z,2.48
2022-11-14T00:36:17.171Z,2.48
2022-11-14T00:37:16.648Z,2.48
2022-11-14T00:38:17.169Z,2.48
2022-11-14T00:39:18.447Z,2.48
2022-11-14T00:40:17.632Z,2.47
2022-11-14T00:41:19.051Z,2.47
2022-11-14T00:41:28.039Z,2.48
2022-11-14T00:42:28.604Z,2.48
2022-11-14T00:43:29.097Z,2.48
2022-11-14T00:44:29.204Z,2.48
2022-11-14T00:45:29.595Z,2.49
2022-11-14T00:46:29.695Z,2.48
2022-11-14T00:47:29.978Z,2.48
2022-11-14T00:48:30.965Z,2.48
2022-11-14T00:49:30.939Z,2.48
2022-11-14T00:50:32.142Z,2.48
2022-11-14T00:51:32.798Z,2.48
2022-11-14T00:52:33.250Z,2.48
2022-11-14T00:53:33.455Z,2.49
2022-11-14T00:54:33.572Z,2.49
2022-11-14T00:55:32.734Z,2.49
2022-11-14T00:56:32.854Z,2.49
2022-11-14T00:57:34.791Z,2.49
2022-11-14T00:58:35.096Z,2.50
2022-11-14T00:59:35.432Z,2.50
2022-11-14T01:00:36.019Z,2.51
2022-11-14T01:01:34.957Z,2.52
2022-11-14T01:02:35.586Z,2.52
2022-11-14T01:03:36.750Z,2.53
2022-11-14T01:04:35.772Z,2.52
2022-11-14T01:04:47.396Z,2.49
2022-11-14T01:05:47.644Z,2.49
2022-11-14T01:06:48.342Z,2.48
2022-11-14T01:07:49.643Z,2.48
2022-11-14T01:08:49.937Z,2.48
2022-11-14T01:09:49.297Z,2.48
2022-11-14T01:10:50.131Z,2.48
2022-11-14T01:11:51.395Z,2.48
2022-11-14T01:12:50.626Z,2.49
2022-11-14T01:13:50.883Z,2.49
2022-11-14T01:14:52.285Z,2.49
2022-11-14T01:15:52.780Z,2.49
2022-11-14T01:16:52.318Z,2.49
2022-11-14T01:17:53.764Z,2.49
2022-11-14T01:18:52.838Z,2.49
2022-11-14T01:19:53.133Z,2.49
2022-11-14T01:20:54.416Z,2.48
2022-11-14T01:21:54.600Z,2.48
2022-11-14T01:22:55.027Z,2.47
2022-11-14T01:23:54.411Z,2.47
2022-11-14T01:24:54.950Z,2.47
2022-11-14T01:25:55.624Z,2.46
2022-11-14T01:26:56.313Z,2.46
2022-11-14T01:27:57.215Z,2.45
2022-11-14T01:28:05.866Z,2.35
2022-11-14T01:29:06.272Z,2.35
2022-11-14T01:30:07.980Z,2.35
2022-11-14T01:31:07.629Z,2.35
2022-11-14T01:32:07.978Z,2.34
2022-11-14T01:33:08.461Z,2.35
2022-11-14T01:34:09.741Z,2.34
2022-11-14T01:35:09.054Z,2.34
2022-11-14T01:36:09.286Z,2.34
2022-11-14T01:37:10.443Z,2.34
2022-11-14T01:38:09.837Z,2.34
2022-11-14T01:39:11.268Z,2.34
2022-11-14T01:40:11.836Z,2.33
2022-11-14T07:59:20.569Z,4.61
2022-11-14T08:00:20.526Z,4.61
2022-11-14T08:01:22.781Z,4.61
2022-11-14T08:02:22.506Z,4.61
2022-11-14T08:03:23.044Z,4.61
2022-11-14T08:04:22.088Z,4.61
2022-11-14T08:05:22.679Z,4.62
2022-11-14T08:06:22.924Z,4.62
2022-11-14T08:07:23.253Z,4.63
2022-11-14T08:08:23.874Z,4.63
2022-11-14T08:09:25.795Z,4.64
2022-11-14T08:10:29.763Z,4.64
2022-11-14T08:11:34.877Z,4.65
2022-11-14T08:12:26.295Z,4.67
2022-11-14T08:13:32.054Z,4.68
2022-11-14T08:14:26.904Z,4.69
2022-11-14T08:15:27.119Z,4.70
2022-11-14T08:16:27.683Z,4.72
2022-11-14T08:17:29.574Z,4.73
2022-11-14T08:18:29.624Z,4.75
2022-11-14T08:19:29.871Z,4.76
2022-11-14T08:20:30.821Z,4.78
2022-11-14T08:21:31.674Z,4.79
2022-11-14T08:22:32.620Z,4.81
2022-11-14T08:23:32.666Z,4.83
2022-11-14T08:24:33.493Z,4.85
2022-11-14T08:25:34.510Z,4.87
2022-11-14T08:26:34.677Z,4.89
2022-11-14T08:26:43.123Z,5.22
2022-11-14T08:27:43.680Z,5.22
2022-11-14T08:28:44.334Z,5.22
2022-11-14T08:29:45.711Z,5.22
2022-11-14T08:30:45.161Z,5.23
2022-11-14T08:31:47.084Z,5.23
2022-11-14T08:32:46.396Z,5.24
2022-11-14T08:33:47.834Z,5.25
2022-11-14T08:34:47.547Z,5.25
2022-11-14T08:35:48.450Z,5.26
2022-11-14T08:36:48.615Z,5.27
2022-11-14T08:37:51.555Z,5.28
2022-11-14T08:38:51.680Z,5.29
2022-11-14T08:39:50.333Z,5.30
2022-11-14T08:40:51.175Z,5.32
2022-11-14T08:41:51.979Z,5.33
2022-11-14T08:42:52.875Z,5.34
2022-11-14T08:43:54.474Z,5.36
2022-11-14T08:44:54.236Z,5.38
2022-11-14T08:45:54.271Z,5.39
2022-11-14T08:46:55.188Z,5.41
2022-11-14T08:47:56.446Z,5.43
2022-11-14T08:48:55.717Z,5.45
2022-11-14T08:49:56.397Z,5.47
2022-11-14T08:50:57.168Z,5.49
2022-11-14T08:51:57.858Z,5.51
2022-11-14T08:52:59.832Z,5.54
2022-11-14T08:53:59.787Z,5.57
2022-11-14T08:54:08.913Z,5.98
2022-11-14T08:55:09.181Z,5.98
2022-11-14T08:56:09.550Z,5.99
2022-11-14T08:57:10.029Z,5.99
2022-11-14T08:58:10.789Z,6.00
2022-11-14T08:59:11.205Z,6.01
2022-11-14T09:00:12.196Z,6.02
2022-11-14T09:01:12.531Z,6.03
2022-11-14T09:02:13.053Z,6.04
2022-11-14T09:03:13.603Z,6.06
2022-11-14T09:04:14.511Z,6.07
2022-11-14T09:05:14.920Z,6.08
2022-11-14T09:06:15.696Z,6.10
2022-11-14T09:07:16.361Z,6.12
2022-11-14T09:08:16.498Z,6.13
2022-11-14T09:09:16.773Z,6.15
2022-11-14T09:10:17.281Z,6.17
2022-11-14T09:11:19.490Z,6.18
2022-11-14T09:12:18.735Z,6.20
2022-11-14T09:13:20.597Z,6.22
2022-11-14T09:14:20.131Z,6.24
2022-11-14T09:15:20.166Z,6.26
2022-11-14T09:16:20.472Z,6.28
2022-11-14T09:17:20.915Z,6.30
2022-11-14T09:18:21.020Z,6.32
2022-11-14T09:19:21.309Z,6.34
2022-11-14T09:20:23.865Z,6.36
2022-11-14T09:21:22.679Z,6.38
2022-11-14T09:22:23.037Z,6.40
2022-11-14T09:23:23.538Z,6.42
2022-11-14T09:24:24.375Z,6.44
2022-11-14T09:24:35.082Z,6.66
2022-11-14T09:26:36.007Z,6.74
2022-11-14T09:27:36.005Z,6.74
2022-11-14T09:28:36.263Z,6.74
2022-11-14T09:29:38.219Z,6.75
2022-11-14T09:30:37.844Z,6.75
2022-11-14T09:31:38.256Z,6.75
2022-11-14T09:32:38.837Z,6.76
2022-11-14T09:33:39.859Z,6.76
2022-11-14T09:34:40.239Z,6.76
2022-11-14T09:35:39.855Z,6.77
2022-11-14T09:36:40.653Z,6.78
2022-11-14T09:37:41.551Z,6.78
2022-11-14T09:38:42.315Z,6.79
2022-11-14T09:39:42.840Z,6.79
2022-11-14T09:40:43.127Z,6.79
2022-11-14T09:41:43.486Z,6.80
2022-11-14T09:42:43.889Z,6.80
2022-11-14T09:43:44.581Z,6.79
2022-11-14T09:44:46.055Z,6.79
2022-11-14T09:45:45.245Z,6.79
2022-11-14T09:46:46.122Z,6.79
2022-11-14T09:47:46.835Z,6.80
2022-11-14T09:48:47.813Z,6.80
2022-11-14T09:49:48.749Z,6.80
2022-11-14T09:50:49.444Z,6.80
2022-11-14T09:51:51.017Z,6.80
2022-11-14T09:52:50.703Z,6.80
2022-11-14T09:52:59.361Z,6.90
2022-11-14T09:53:59.550Z,6.90
2022-11-14T09:54:59.904Z,6.90
2022-11-14T09:56:01.249Z,6.90
2022-11-14T09:57:00.296Z,6.91
2022-11-14T09:58:00.751Z,6.91
2022-11-14T09:59:01.611Z,6.92
2022-11-14T10:00:02.499Z,6.92
2022-11-14T10:01:08.922Z,6.93
2022-11-14T10:02:03.245Z,6.93
2022-11-14T10:03:04.626Z,6.94
2022-11-14T10:04:09.240Z,6.94
2022-11-14T10:05:04.625Z,6.95
2022-11-14T10:06:04.839Z,6.95
2022-11-14T10:07:05.531Z,6.96
2022-11-14T10:08:06.154Z,6.96
2022-11-14T10:09:06.663Z,6.96
2022-11-14T10:10:08.225Z,6.97
2022-11-14T10:11:08.449Z,6.97
2022-11-14T10:12:08.125Z,6.98
2022-11-14T10:13:10.013Z,6.99
2022-11-14T10:14:09.563Z,6.99
2022-11-14T10:15:10.166Z,6.99
2022-11-14T10:16:10.360Z,7.00
2022-11-14T10:17:11.016Z,7.00
2022-11-14T10:18:11.465Z,7.01
2022-11-14T10:19:11.912Z,7.02
2022-11-14T10:19:22.621Z,7.14
2022-11-14T10:20:23.125Z,7.14
2022-11-14T10:21:24.542Z,7.14
2022-11-14T10:22:25.024Z,7.14
2022-11-14T10:23:24.870Z,7.15
2022-11-14T10:24:25.561Z,7.15
2022-11-14T10:25:26.412Z,7.16
2022-11-14T10:26:28.053Z,7.16
2022-11-14T10:27:27.105Z,7.17
2022-11-14T10:28:28.708Z,7.17
2022-11-14T10:29:28.177Z,7.18
2022-11-14T10:30:29.375Z,7.18
2022-11-14T10:31:29.836Z,7.19
2022-11-14T10:32:29.665Z,7.20
2022-11-14T10:33:31.124Z,7.21
2022-11-14T10:34:30.874Z,7.22
2022-11-14T10:35:35.126Z,7.23
2022-11-14T10:36:32.275Z,7.24
2022-11-14T10:37:33.823Z,7.26
2022-11-14T10:38:33.584Z,7.27
2022-11-14T10:39:33.474Z,7.28
2022-11-14T10:40:34.237Z,7.30
2022-11-14T10:41:55.574Z,7.31
2022-11-14T10:42:35.680Z,7.33
2022-11-14T10:43:36.464Z,7.34
2022-11-14T10:43:46.111Z,7.57
2022-11-14T10:44:46.999Z,7.57
2022-11-14T10:45:47.256Z,7.57
2022-11-14T10:46:47.847Z,7.58
2022-11-14T10:47:48.474Z,7.58
2022-11-14T10:48:49.550Z,7.59
2022-11-14T10:49:48.746Z,7.60
2022-11-14T10:50:50.311Z,7.60
2022-11-14T10:51:51.232Z,7.61
2022-11-14T10:52:50.252Z,7.62
2022-11-14T10:53:50.565Z,7.62
2022-11-14T10:54:50.951Z,7.63
2022-11-14T10:56:04.249Z,7.64
2022-11-14T10:56:52.128Z,7.65
2022-11-14T10:57:52.997Z,7.66
2022-11-14T10:58:53.016Z,7.67
2022-11-14T10:59:54.512Z,7.69
2022-11-14T11:00:54.160Z,7.71
2022-11-14T11:01:54.222Z,7.72
2022-11-14T11:02:54.558Z,7.74
2022-11-14T11:03:55.202Z,7.75
2022-11-14T11:04:55.472Z,7.76
2022-11-14T11:05:55.751Z,7.77
2022-11-14T11:06:56.159Z,7.78
2022-11-14T11:07:59.972Z,7.80
2022-11-14T11:08:56.509Z,7.81
2022-11-14T11:09:56.901Z,7.83
2022-11-14T11:10:57.248Z,7.85
2022-11-14T11:11:05.999Z,8.12
2022-11-14T11:12:06.212Z,8.12
2022-11-14T11:13:06.575Z,8.12
2022-11-14T11:14:06.596Z,8.12
2022-11-14T11:15:07.258Z,8.12
2022-11-14T11:16:08.098Z,8.12
2022-11-14T11:17:08.841Z,8.12
2022-11-14T11:18:08.924Z,8.12
2022-11-14T11:19:09.373Z,8.12
2022-11-14T11:20:09.611Z,8.12
2022-11-14T11:21:09.946Z,8.11
2022-11-14T11:22:10.636Z,8.11
2022-11-14T11:23:11.490Z,8.11
2022-11-14T11:24:11.915Z,8.11
2022-11-14T11:25:12.149Z,8.11
2022-11-14T11:26:13.067Z,8.11
2022-11-14T11:27:13.554Z,8.11
2022-11-14T11:28:15.204Z,8.11
2022-11-14T11:29:15.844Z,8.12
2022-11-14T11:30:15.146Z,8.12
2022-11-14T11:31:15.560Z,8.13
2022-11-14T11:32:15.719Z,8.13
2022-11-14T11:33:15.767Z,8.13
2022-11-14T11:34:17.174Z,8.14
2022-11-14T11:35:17.976Z,8.14
2022-11-14T11:36:18.285Z,8.13
2022-11-14T11:37:17.785Z,8.13
2022-11-14T11:38:18.711Z,8.14
2022-11-14T11:39:19.193Z,8.14
2022-11-14T11:39:28.414Z,8.20
2022-11-14T11:40:28.358Z,8.19
2022-11-14T11:43:06.230Z,8.19
2022-11-14T11:43:38.964Z,8.18
2022-11-14T11:44:29.772Z,8.18
2022-11-14T11:45:30.362Z,8.17
2022-11-14T11:46:30.561Z,8.17
2022-11-14T11:47:31.545Z,8.16
2022-11-14T11:48:31.864Z,8.16
2022-11-14T11:49:31.992Z,8.16
2022-11-14T11:50:32.072Z,8.16
2022-11-14T11:51:32.328Z,8.16
2022-11-14T11:52:32.535Z,8.16
2022-11-14T11:53:33.636Z,8.16
2022-11-14T11:54:33.948Z,8.16
2022-11-14T11:55:35.481Z,8.16
2022-11-14T11:56:34.493Z,8.15
2022-11-14T11:57:34.795Z,8.15
2022-11-14T11:58:35.299Z,8.15
2022-11-14T11:59:35.814Z,8.15
2022-11-14T12:00:35.839Z,8.15
2022-11-14T12:01:36.100Z,8.16
2022-11-14T12:02:43.438Z,8.16
2022-11-14T12:03:37.505Z,8.16
2022-11-14T12:04:37.534Z,8.15
2022-11-14T12:05:37.667Z,8.15
2022-11-14T12:06:38.600Z,8.14
2022-11-14T12:07:39.314Z,8.14
2022-11-14T12:08:39.342Z,8.14
2022-11-14T12:10:08.659Z,8.14
2022-11-14T12:10:11.686Z,8.23
2022-11-14T12:10:53.162Z,8.23
2022-11-14T12:11:53.318Z,8.22
2022-11-14T12:12:53.375Z,8.23
2022-11-14T12:13:53.493Z,8.23
2022-11-14T12:14:54.482Z,8.24
2022-11-14T12:15:55.216Z,8.25
2022-11-14T12:16:56.143Z,8.26
2022-11-14T12:17:56.686Z,8.27
2022-11-14T12:18:57.616Z,8.28
2022-11-14T12:19:58.440Z,8.28
2022-11-14T12:20:59.130Z,8.28
2022-11-14T12:21:59.366Z,8.29
2022-11-14T12:22:59.972Z,8.29
2022-11-14T12:24:00.197Z,8.29
2022-11-14T12:25:01.168Z,8.30
2022-11-14T12:26:01.545Z,8.30
2022-11-14T12:27:01.531Z,8.31
2022-11-14T12:28:01.652Z,8.31
2022-11-14T12:29:02.197Z,8.32
2022-11-14T12:30:03.205Z,8.33
2022-11-14T12:31:03.694Z,8.34
2022-11-14T12:32:04.153Z,8.36
2022-11-14T12:33:04.332Z,8.37
2022-11-14T12:34:04.570Z,8.38
2022-11-14T12:35:05.381Z,8.38
2022-11-14T12:36:05.453Z,8.39
2022-11-14T12:37:06.650Z,8.39
2022-11-14T12:38:06.497Z,8.39
2022-11-14T12:39:06.664Z,8.39
2022-11-14T12:40:06.720Z,8.39
2022-11-14T12:40:16.467Z,8.49
2022-11-14T12:41:16.658Z,8.49
2022-11-14T12:42:16.701Z,8.49
2022-11-14T15:16:21.331Z,8.49
2022-11-14T15:17:21.240Z,8.47
2022-11-14T15:18:21.559Z,8.45
2022-11-14T15:19:22.352Z,8.43
2022-11-14T15:20:22.646Z,8.41
2022-11-14T15:21:22.682Z,8.39
2022-11-14T15:22:23.477Z,8.38
2022-11-14T15:23:23.525Z,8.36
2022-11-14T15:24:25.087Z,8.34
2022-11-14T15:25:24.098Z,8.33
2022-11-14T15:26:24.608Z,8.31
2022-11-14T15:27:24.765Z,8.30
2022-11-14T15:28:26.207Z,8.29
2022-11-14T15:29:46.558Z,8.27
2022-11-14T15:30:28.438Z,8.26
2022-11-14T15:31:26.703Z,8.24
2022-11-14T15:32:27.191Z,8.23
2022-11-14T15:33:28.111Z,8.22
2022-11-14T15:34:30.697Z,8.21
2022-11-14T15:35:28.595Z,8.20
2022-11-14T15:36:29.087Z,8.19
2022-11-14T15:37:31.280Z,8.18
2022-11-14T15:38:45.006Z,8.17
2022-11-14T15:39:29.742Z,8.16
2022-11-14T15:40:32.399Z,8.16
2022-11-14T15:41:30.987Z,8.15
2022-11-14T15:42:31.461Z,8.14
2022-11-14T15:43:32.129Z,8.13
2022-11-14T15:43:49.594Z,7.90
2022-11-14T15:44:47.077Z,7.90
2022-11-14T15:45:47.132Z,7.90
2022-11-14T15:46:47.352Z,7.90
2022-11-14T15:47:47.983Z,7.90
2022-11-14T15:48:48.408Z,7.90
2022-11-14T15:49:51.075Z,7.90
2022-11-14T15:50:49.190Z,7.89
2022-11-14T15:51:49.896Z,7.89
2022-11-14T15:52:50.628Z,7.89
2022-11-14T15:53:51.024Z,7.88
2022-11-14T15:54:51.655Z,7.88
2022-11-14T15:55:51.833Z,7.88
2022-11-14T15:56:52.378Z,7.88
2022-11-14T15:58:21.038Z,7.88
2022-11-14T15:58:53.634Z,7.87
2022-11-14T15:59:53.882Z,7.87
2022-11-14T16:00:54.961Z,7.86
2022-11-14T16:01:55.862Z,7.86
2022-11-14T16:02:56.170Z,7.85
2022-11-14T16:03:57.449Z,7.84
2022-11-14T16:04:56.760Z,7.84
2022-11-14T16:05:57.022Z,7.83
2022-11-14T16:06:57.329Z,7.82
2022-11-14T16:07:57.742Z,7.81
2022-11-14T16:08:59.472Z,7.81
2022-11-14T16:09:59.558Z,7.80
2022-11-14T16:11:00.049Z,7.79
2022-11-14T16:12:00.247Z,7.78
2022-11-14T16:13:00.807Z,7.78
2022-11-14T16:13:14.329Z,7.69
2022-11-14T16:14:14.692Z,7.69
2022-11-14T16:15:12.437Z,7.69
2022-11-14T16:16:15.507Z,7.69
2022-11-14T16:17:13.900Z,7.69
2022-11-14T16:18:14.332Z,7.69
2022-11-14T16:19:14.659Z,7.69
2022-11-14T16:20:22.400Z,7.69
2022-11-14T16:21:16.061Z,7.68
2022-11-14T16:22:16.895Z,7.68
2022-11-14T16:23:17.245Z,7.68
2022-11-14T16:24:18.197Z,7.67
2022-11-14T16:25:19.213Z,7.67
2022-11-14T16:26:27.137Z,7.67
2022-11-14T16:27:20.521Z,7.67
2022-11-14T16:28:22.042Z,7.67
2022-11-14T16:29:21.666Z,7.67
2022-11-14T16:30:22.644Z,7.67
2022-11-14T16:31:30.849Z,7.66
2022-11-14T16:32:23.464Z,7.66
2022-11-14T16:33:23.593Z,7.66
2022-11-14T16:34:31.164Z,7.66
2022-11-14T16:35:23.955Z,7.66
2022-11-14T16:36:34.963Z,7.64
2022-11-14T16:37:35.514Z,7.64
2022-11-14T16:38:35.742Z,7.64
2022-11-14T16:39:35.869Z,7.64
2022-11-14T16:40:43.897Z,7.64
2022-11-14T16:41:36.820Z,7.64
2022-11-14T16:42:37.619Z,7.64
2022-11-14T16:43:37.697Z,7.64
2022-11-14T16:44:42.024Z,7.64
2022-11-14T16:45:39.898Z,7.64
2022-11-14T16:46:39.633Z,7.64
2022-11-14T16:47:39.793Z,7.64
2022-11-14T16:48:39.915Z,7.64
2022-11-14T16:49:43.395Z,7.64
2022-11-14T16:50:41.738Z,7.64
2022-11-14T16:51:50.465Z,7.65
2022-11-14T16:52:42.747Z,7.65
2022-11-14T16:53:43.222Z,7.65
2022-11-14T16:54:45.766Z,7.65
2022-11-14T16:55:47.303Z,7.65
2022-11-14T16:56:45.366Z,7.64
2022-11-14T16:57:45.395Z,7.64
2022-11-14T16:59:51.922Z,7.64
2022-11-14T17:00:45.923Z,7.64
2022-11-14T17:01:47.517Z,7.64
2022-11-14T17:02:47.068Z,7.64
2022-11-14T17:03:47.484Z,7.65
2022-11-14T17:03:56.279Z,7.67
2022-11-14T17:04:56.938Z,7.67
2022-11-14T17:05:57.736Z,7.67
2022-11-14T17:06:58.669Z,7.67
2022-11-14T17:07:58.885Z,7.67
2022-11-14T17:09:00.356Z,7.67
2022-11-14T17:10:00.237Z,7.67
2022-11-14T17:11:00.832Z,7.67
2022-11-14T17:12:01.809Z,7.67
2022-11-14T17:13:01.879Z,7.67
2022-11-14T17:14:03.582Z,7.68
2022-11-14T17:15:03.053Z,7.68
2022-11-14T17:16:04.003Z,7.68
2022-11-14T17:17:04.546Z,7.68
2022-11-14T17:18:05.157Z,7.69
2022-11-14T17:19:04.994Z,7.69
2022-11-14T17:20:05.748Z,7.69
2022-11-14T17:21:07.748Z,7.69
2022-11-14T17:22:07.760Z,7.70
2022-11-14T17:23:07.938Z,7.70
2022-11-14T17:24:08.849Z,7.71
2022-11-14T17:25:08.994Z,7.72
2022-11-14T17:26:15.121Z,7.73
2022-11-14T17:27:09.956Z,7.74
2022-11-14T17:28:11.843Z,7.74
2022-11-14T17:28:23.024Z,7.86
2022-11-14T17:29:23.002Z,7.86
2022-11-14T17:30:23.604Z,7.86
2022-11-14T17:31:23.674Z,7.86
2022-11-14T17:32:24.348Z,7.86
2022-11-14T17:33:24.635Z,7.86
2022-11-14T17:34:24.802Z,7.86
2022-11-14T17:35:25.399Z,7.86
2022-11-14T17:36:25.975Z,7.86
2022-11-14T17:37:26.214Z,7.86
2022-11-14T17:38:27.191Z,7.86
2022-11-14T17:39:27.717Z,7.86
2022-11-14T17:40:28.317Z,7.86
2022-11-14T17:41:28.823Z,7.86
2022-11-14T17:42:29.456Z,7.86
2022-11-14T17:43:34.284Z,7.86
2022-11-14T17:44:30.495Z,7.87
2022-11-14T17:45:31.042Z,7.87
2022-11-14T17:46:32.284Z,7.88
2022-11-14T17:47:31.512Z,7.88
2022-11-14T17:48:32.951Z,7.89
2022-11-14T17:49:33.299Z,7.89
2022-11-14T17:50:37.611Z,7.90
2022-11-14T17:51:34.096Z,7.90
2022-11-14T17:52:34.724Z,7.91
2022-11-14T17:53:34.870Z,7.91
2022-11-14T17:54:34.827Z,7.91
2022-11-14T17:54:43.147Z,7.92
2022-11-14T17:55:44.705Z,7.92
2022-11-14T17:56:49.672Z,7.92
2022-11-14T17:57:45.204Z,7.92
2022-11-14T17:58:45.208Z,7.91
2022-11-14T17:59:45.749Z,7.91
2022-11-14T18:00:46.296Z,7.90
2022-11-14T18:01:46.673Z,7.90
2022-11-14T18:02:46.977Z,7.89
2022-11-14T18:03:47.305Z,7.89
2022-11-14T18:04:49.312Z,7.88
2022-11-14T18:05:48.572Z,7.88
2022-11-14T18:06:49.375Z,7.87
2022-11-14T18:07:49.814Z,7.87
2022-11-14T18:08:50.632Z,7.86
2022-11-14T18:09:53.565Z,7.85
2022-11-14T18:10:51.722Z,7.85
2022-11-14T18:11:52.012Z,7.84
2022-11-14T18:12:52.514Z,7.84
2022-11-14T18:13:52.840Z,7.83
2022-11-14T18:14:53.348Z,7.83
2022-11-14T18:16:01.476Z,7.82
2022-11-14T18:17:16.073Z,7.81
2022-11-14T18:17:54.707Z,7.80
2022-11-14T18:19:08.177Z,7.73
2022-11-14T18:20:07.397Z,7.73
2022-11-14T18:21:09.019Z,7.73
2022-11-14T18:22:08.934Z,7.73
2022-11-14T18:23:09.821Z,7.73
2022-11-14T18:24:10.702Z,7.73
2022-11-14T18:25:11.304Z,7.73
2022-11-14T18:26:18.399Z,7.73
2022-11-14T18:27:11.978Z,7.73
2022-11-14T18:28:29.910Z,7.73
2022-11-14T18:29:28.208Z,7.73
2022-11-14T18:30:41.003Z,7.73
2022-11-14T18:31:29.735Z,7.73
2022-11-14T18:35:56.922Z,7.73
2022-11-14T18:36:55.341Z,7.73
2022-11-14T18:38:03.192Z,7.73
2022-11-14T18:38:56.859Z,7.73
2022-11-14T18:39:44.148Z,7.68
2022-11-14T18:40:44.412Z,7.68
2022-11-14T18:41:44.567Z,7.68
2022-11-14T18:42:45.249Z,7.68
2022-11-14T18:43:45.388Z,7.68
2022-11-14T18:44:45.251Z,7.68
2022-11-14T18:45:46.431Z,7.69
2022-11-14T18:46:46.451Z,7.69
2022-11-14T18:47:49.385Z,7.70
2022-11-14T18:48:52.526Z,7.71
2022-11-14T18:49:49.304Z,7.71
2022-11-14T18:51:10.706Z,7.72
2022-11-14T18:51:50.496Z,7.73
2022-11-14T18:52:50.817Z,7.74
2022-11-14T18:54:00.066Z,7.74
2022-11-14T18:54:51.306Z,7.75
2022-11-14T18:55:52.320Z,7.76
2022-11-14T18:56:52.452Z,7.77
2022-11-14T18:57:53.153Z,7.78
2022-11-14T18:58:53.283Z,7.78
2022-11-14T18:59:56.540Z,7.79
2022-11-14T19:00:55.512Z,7.79
2022-11-14T19:01:55.372Z,7.80
2022-11-14T19:02:56.238Z,7.80
2022-11-14T19:03:22.341Z,7.87
2022-11-14T19:04:16.433Z,7.87
2022-11-14T19:05:20.966Z,7.87
2022-11-14T19:06:15.754Z,7.87
2022-11-14T19:07:15.852Z,7.87
2022-11-14T19:08:18.884Z,7.87
2022-11-14T19:09:38.414Z,7.87
2022-11-14T19:10:21.177Z,7.87
2022-11-14T19:11:18.983Z,7.87
2022-11-14T19:12:21.309Z,7.87
2022-11-14T19:13:36.382Z,7.86
2022-11-14T19:14:35.300Z,7.86
2022-11-14T19:15:36.016Z,7.86
2022-11-14T19:16:37.228Z,7.85
2022-11-14T19:17:36.440Z,7.85
2022-11-14T19:18:36.884Z,7.84
2022-11-14T19:19:39.814Z,7.84
2022-11-14T19:20:47.128Z,7.83
2022-11-14T19:21:38.723Z,7.82
2022-11-14T19:22:38.800Z,7.82
2022-11-14T19:23:52.425Z,7.81
2022-11-14T19:24:39.054Z,7.80
2022-11-14T19:25:46.760Z,7.80
2022-11-14T19:26:47.049Z,7.79
2022-11-14T19:27:39.876Z,7.79
2022-11-14T19:28:40.104Z,7.79
2022-11-14T19:29:48.459Z,7.78
2022-11-14T19:30:41.211Z,7.78
2022-11-14T19:31:41.571Z,7.77
2022-11-14T19:32:44.685Z,7.77
2022-11-14T19:32:53.075Z,7.68
2022-11-14T19:33:53.143Z,7.68
2022-11-14T19:34:58.350Z,7.68
2022-11-14T19:35:54.868Z,7.68
2022-11-14T19:37:13.068Z,7.68
2022-11-14T19:37:58.049Z,7.68
2022-11-14T19:38:58.622Z,7.68
2022-11-14T19:40:55.050Z,7.68
2022-11-14T19:41:04.893Z,7.68
2022-11-14T19:41:58.079Z,7.69
2022-11-14T19:43:09.348Z,7.69
2022-11-14T19:45:26.227Z,7.69
2022-11-14T19:46:30.073Z,7.69
2022-11-14T19:47:28.175Z,7.68
2022-11-14T19:48:32.093Z,7.68
2022-11-14T19:48:56.012Z,7.58
2022-11-14T19:49:55.482Z,7.58
2022-11-14T19:50:53.220Z,7.58
2022-11-14T19:51:54.102Z,7.58
2022-11-14T19:52:59.103Z,7.58
2022-11-14T19:54:02.576Z,7.57
2022-11-14T19:54:55.446Z,7.57
2022-11-14T19:56:13.767Z,7.57
2022-11-14T19:56:56.954Z,7.56
2022-11-14T19:57:17.896Z,7.47
2022-11-14T19:58:18.623Z,7.47
2022-11-14T19:59:24.164Z,7.46
2022-11-14T20:00:19.693Z,7.46
2022-11-14T20:01:20.545Z,7.46
2022-11-14T20:02:21.486Z,7.46
2022-11-14T20:03:21.609Z,7.46
2022-11-14T20:04:25.091Z,7.46
2022-11-14T20:05:25.419Z,7.46
2022-11-14T20:06:43.412Z,7.45
2022-11-14T20:07:23.794Z,7.45
2022-11-14T20:08:24.485Z,7.44
2022-11-14T20:09:32.790Z,7.44
2022-11-14T20:10:44.647Z,7.43
2022-11-14T20:14:50.546Z,7.43
2022-11-14T20:15:56.019Z,7.42
2022-11-14T20:16:56.674Z,7.42
2022-11-14T20:17:52.550Z,7.41
2022-11-14T20:18:55.822Z,7.41
2022-11-14T20:19:51.385Z,7.40
2022-11-14T20:20:52.278Z,7.39
2022-11-14T20:21:53.261Z,7.39
2022-11-14T20:22:53.374Z,7.38
2022-11-14T20:23:15.516Z,7.27
2022-11-14T20:24:14.546Z,7.27
2022-11-14T20:25:14.228Z,7.27
2022-11-14T20:26:17.373Z,7.27
2022-11-14T20:27:23.137Z,7.27
2022-11-14T20:28:16.195Z,7.27
2022-11-14T20:29:16.592Z,7.27
2022-11-14T20:30:24.745Z,7.27
2022-11-14T20:31:24.940Z,7.27
2022-11-14T20:32:35.409Z,7.28
2022-11-14T20:34:36.336Z,7.28
2022-11-14T20:35:37.133Z,7.29
2022-11-14T20:38:25.455Z,7.38
2022-11-14T20:39:35.182Z,7.37
2022-11-14T20:40:35.741Z,7.37
2022-11-14T20:41:18.504Z,7.37
2022-11-14T20:42:20.928Z,7.37
2022-11-14T20:43:19.251Z,7.37
2022-11-14T20:44:20.238Z,7.37
2022-11-14T20:45:20.496Z,7.37
2022-11-14T20:46:21.384Z,7.37
2022-11-14T20:47:22.235Z,7.37
2022-11-14T20:48:23.218Z,7.37
2022-11-14T20:49:24.165Z,7.37
2022-11-14T20:50:23.232Z,7.37
2022-11-14T20:51:23.577Z,7.37
2022-11-14T20:52:26.459Z,7.37
2022-11-14T20:53:24.490Z,7.37
2022-11-14T20:53:56.873Z,7.39
2022-11-14T20:55:14.422Z,7.39
2022-11-14T20:56:04.052Z,7.39
2022-11-14T20:56:57.804Z,7.39
2022-11-14T20:57:58.664Z,7.39
2022-11-14T20:58:58.808Z,7.39
2022-11-14T21:00:02.046Z,7.39
2022-11-14T21:01:04.679Z,7.39
2022-11-14T21:02:05.929Z,7.39
2022-11-14T21:03:18.420Z,7.39
2022-11-14T21:04:01.837Z,7.39
2022-11-14T21:05:05.074Z,7.39
2022-11-14T21:06:03.703Z,7.39
2022-11-14T21:07:04.711Z,7.39
2022-11-14T21:08:00.131Z,7.40
2022-11-14T21:08:23.695Z,7.39
2022-11-14T21:09:21.583Z,7.39
2022-11-14T21:10:22.536Z,7.39
2022-11-14T21:11:25.656Z,7.40
2022-11-14T21:12:23.882Z,7.40
2022-11-14T21:13:23.802Z,7.40
2022-11-14T21:14:24.897Z,7.40
2022-11-14T21:15:25.490Z,7.40
2022-11-14T21:16:25.887Z,7.40
2022-11-14T21:16:40.397Z,7.42
2022-11-14T21:17:38.168Z,7.42
2022-11-14T21:19:00.603Z,7.41
2022-11-14T21:19:39.770Z,7.41
2022-11-14T21:20:40.080Z,7.41
2022-11-14T21:21:40.084Z,7.41
2022-11-14T21:22:52.546Z,7.41
2022-11-14T21:23:44.717Z,7.41
2022-11-14T21:24:45.370Z,7.41
2022-11-14T21:25:45.458Z,7.41
2022-11-14T21:26:43.916Z,7.41
2022-11-14T21:27:44.874Z,7.41
2022-11-14T21:28:45.726Z,7.41
2022-11-14T21:29:49.568Z,7.41
2022-11-14T21:30:48.655Z,7.41
2022-11-14T21:31:50.390Z,7.42
2022-11-14T21:32:57.323Z,7.42
2022-11-14T21:33:48.439Z,7.42
2022-11-14T21:34:49.324Z,7.42
2022-11-14T21:35:53.193Z,7.42
2022-11-14T21:36:52.145Z,7.42
2022-11-14T21:37:52.044Z,7.43
2022-11-14T21:39:01.032Z,7.43
2022-11-14T21:39:55.075Z,7.43
2022-11-14T21:40:54.879Z,7.43
2022-11-14T21:41:56.344Z,7.43
2022-11-14T21:42:54.856Z,7.42
2022-11-14T21:44:19.169Z,7.42
2022-11-14T21:44:59.636Z,7.42
2022-11-14T21:46:26.469Z,7.41
2022-11-14T21:46:57.278Z,7.41
2022-11-14T21:47:59.144Z,7.40
2022-11-14T21:48:16.088Z,7.33
2022-11-14T21:49:12.773Z,7.33
2022-11-14T21:50:12.706Z,7.33
2022-11-14T21:51:14.777Z,7.33
2022-11-14T21:52:15.745Z,7.33
2022-11-14T21:53:16.138Z,7.33
2022-11-14T21:54:16.672Z,7.33
2022-11-14T21:55:26.694Z,7.32
2022-11-14T21:56:18.385Z,7.32
2022-11-14T21:57:19.155Z,7.31
2022-11-14T21:58:21.111Z,7.31
2022-11-14T21:59:20.204Z,7.30
2022-11-14T22:00:20.597Z,7.30
2022-11-14T22:01:35.906Z,7.29
2022-11-14T22:02:33.340Z,7.29
2022-11-14T22:03:33.986Z,7.28
2022-11-14T22:04:34.419Z,7.27
2022-11-14T22:05:37.483Z,7.26
2022-11-14T22:06:35.343Z,7.25
2022-11-14T22:07:35.899Z,7.25
2022-11-14T22:08:34.590Z,7.11
2022-11-14T22:09:25.960Z,7.11